createdAt,value
2022-12-27T00:00:58.277Z,15.35
2022-12-27T00:03:48.019Z,13.90
2022-12-27T00:06:38.746Z,34.42
2022-12-27T00:09:28.081Z,21.33
2022-12-27T00:12:17.565Z,35.28
2022-12-27T00:15:08.511Z,82.65
2022-12-27T00:17:57.912Z,18.13
2022-12-27T00:20:47.218Z,37.47
2022-12-27T00:23:40.465Z,15.32
2022-12-27T00:26:32.293Z,23.48
2022-12-27T00:29:21.655Z,13.60
2022-12-27T00:32:10.996Z,13.18
2022-12-27T00:35:00.300Z,12.48
2022-12-27T00:37:49.570Z,20.77
2022-12-27T00:40:42.705Z,31.60
2022-12-27T00:46:21.711Z,12.50
2022-12-27T00:49:11.288Z,11.27
2022-12-27T00:52:00.625Z,15.68
2022-12-27T00:54:49.884Z,17.77
2022-12-27T00:57:40.514Z,12.48
2022-12-27T01:00:30.673Z,12.30
2022-12-27T01:03:21.425Z,12.43
2022-12-27T01:06:14.026Z,14.05
2022-12-27T01:09:05.158Z,12.25
2022-12-27T01:11:54.478Z,13.20
2022-12-27T01:14:45.147Z,11.77
2022-12-27T01:17:34.391Z,41.92
2022-12-27T01:20:23.747Z,13.70
2022-12-27T01:23:12.978Z,12.57
2022-12-27T01:26:03.536Z,27.13
2022-12-27T01:28:54.619Z,13.98
2022-12-27T01:31:45.946Z,12.23
2022-12-27T01:34:36.001Z,13.40
2022-12-27T01:37:25.775Z,12.25
2022-12-27T01:40:15.563Z,11.88
2022-12-27T01:43:04.330Z,11.52
2022-12-27T01:45:53.619Z,11.93
2022-12-27T01:48:44.546Z,12.23
2022-12-27T01:51:34.325Z,12.02
2022-12-27T01:54:23.825Z,11.13
2022-12-27T01:57:13.511Z,10.95
2022-12-27T02:00:03.224Z,11.07
2022-12-27T02:02:54.622Z,11.43
2022-12-27T02:05:45.621Z,11.02
2022-12-27T02:08:46.698Z,10.93
2022-12-27T02:11:53.386Z,10.98
2022-12-27T02:14:46.005Z,9.45
2022-12-27T02:17:36.746Z,10.35
2022-12-27T02:20:27.214Z,15.45
2022-12-27T02:24:06.987Z,11.35
2022-12-27T02:27:07.843Z,12.35
2022-12-27T02:30:06.188Z,10.60
2022-12-27T02:33:04.255Z,11.60
2022-12-27T02:35:59.421Z,25.60
2022-12-27T02:38:53.196Z,13.88
2022-12-27T02:42:01.207Z,10.65
2022-12-27T02:45:08.854Z,9.50
2022-12-27T02:48:17.807Z,10.57
2022-12-27T02:51:40.379Z,11.80
2022-12-27T02:54:53.264Z,10.18
2022-12-27T02:57:49.689Z,10.23
2022-12-27T03:01:07.031Z,9.95
2022-12-27T03:04:16.217Z,15.27
2022-12-27T03:07:25.861Z,10.13
2022-12-27T03:10:45.566Z,15.52
2022-12-27T03:14:01.006Z,10.00
2022-12-27T03:16:56.835Z,10.30
2022-12-27T03:20:10.001Z,14.90
2022-12-27T03:23:18.630Z,10.18
2022-12-27T03:26:10.381Z,16.55
2022-12-27T03:29:19.589Z,18.97
2022-12-27T03:32:30.528Z,9.10
2022-12-27T03:35:24.102Z,10.48
2022-12-27T03:38:14.207Z,11.45
2022-12-27T03:41:24.705Z,46.00
2022-12-27T03:44:25.308Z,12.02
2022-12-27T03:47:22.203Z,10.35
2022-12-27T03:50:20.821Z,12.00
2022-12-27T03:53:17.280Z,9.85
2022-12-27T03:56:08.813Z,12.02
2022-12-27T03:59:00.648Z,15.20
2022-12-27T04:01:50.379Z,13.85
2022-12-27T04:04:40.066Z,15.00
2022-12-27T04:07:29.289Z,14.25
2022-12-27T04:10:37.445Z,18.45
2022-12-27T04:13:44.036Z,11.15
2022-12-27T04:16:50.352Z,13.70
2022-12-27T04:19:56.940Z,16.40
2022-12-27T04:23:03.548Z,22.13
2022-12-27T04:26:11.631Z,15.50
2022-12-27T04:29:18.623Z,10.75
2022-12-27T04:32:25.049Z,12.65
2022-12-27T04:35:14.497Z,10.82
2022-12-27T04:38:03.691Z,12.48
2022-12-27T04:41:11.715Z,16.88
2022-12-27T04:44:21.117Z,12.77
2022-12-27T04:47:31.142Z,11.75
2022-12-27T04:50:45.704Z,14.90
2022-12-27T04:53:52.601Z,10.32
2022-12-27T04:56:43.251Z,10.82
2022-12-27T04:59:50.054Z,14.82
2022-12-27T05:02:39.779Z,12.50
2022-12-27T05:05:29.431Z,16.85
2022-12-27T05:08:37.354Z,19.35
2022-12-27T05:11:44.321Z,14.20
2022-12-27T05:14:34.992Z,14.48
2022-12-27T05:17:24.275Z,14.30
2022-12-27T05:20:13.634Z,10.60
2022-12-27T05:23:20.497Z,15.13
2022-12-27T05:26:09.732Z,14.45
2022-12-27T05:29:00.544Z,14.23
2022-12-27T05:31:51.133Z,15.90
2022-12-27T05:34:40.407Z,13.95
2022-12-27T05:37:29.808Z,15.13
2022-12-27T05:40:19.203Z,15.85
2022-12-27T05:43:08.434Z,12.25
2022-12-27T05:46:04.014Z,17.42
2022-12-27T05:48:54.623Z,12.82
2022-12-27T05:51:43.873Z,18.38
2022-12-27T05:54:33.158Z,14.90
2022-12-27T05:57:22.495Z,12.75
2022-12-27T06:00:14.367Z,16.35
2022-12-27T06:03:04.376Z,15.88
2022-12-27T06:06:02.764Z,22.85
2022-12-27T06:08:51.993Z,12.77
2022-12-27T06:11:41.194Z,14.60
2022-12-27T06:14:30.478Z,13.82
2022-12-27T06:17:19.673Z,15.48
2022-12-27T06:20:09.855Z,17.38
2022-12-27T06:23:02.219Z,21.13
2022-12-27T06:25:51.625Z,33.30
2022-12-27T06:28:40.835Z,97.00
2022-12-27T06:31:32.594Z,95.93
2022-12-27T06:34:21.830Z,45.15
2022-12-27T06:37:11.088Z,49.53
2022-12-27T06:40:01.874Z,73.68
2022-12-27T06:42:51.338Z,54.97
2022-12-27T06:45:40.798Z,69.93
2022-12-27T06:48:30.745Z,88.35
2022-12-27T06:51:22.237Z,136.98
2022-12-27T06:54:11.817Z,136.50
2022-12-27T06:57:02.397Z,142.57
2022-12-27T06:59:54.178Z,146.85
2022-12-27T07:02:44.255Z,159.10
2022-12-27T07:05:35.896Z,151.77
2022-12-27T07:08:25.120Z,141.45
2022-12-27T07:11:15.794Z,174.40
2022-12-27T07:14:10.228Z,115.00
2022-12-27T07:16:59.468Z,99.78
2022-12-27T07:19:48.767Z,124.20
2022-12-27T07:22:38.052Z,119.53
2022-12-27T07:25:27.341Z,82.75
2022-12-27T07:28:17.149Z,87.55
2022-12-27T07:31:10.284Z,376.17
2022-12-27T07:36:49.749Z,49.67
2022-12-27T07:39:39.038Z,189.63
2022-12-27T07:42:29.757Z,117.00
2022-12-27T07:45:19.255Z,51.45
2022-12-27T07:48:10.630Z,239.68
2022-12-27T07:51:00.044Z,69.82
2022-12-27T07:53:50.329Z,72.32
2022-12-27T07:56:39.611Z,77.28
2022-12-27T07:59:28.939Z,80.72
2022-12-27T08:02:18.305Z,72.10
2022-12-27T08:05:10.084Z,69.75
2022-12-27T08:08:03.620Z,70.55
2022-12-27T08:10:53.486Z,89.50
2022-12-27T08:13:42.747Z,88.90
2022-12-27T08:16:32.158Z,200.80
2022-12-27T08:19:21.453Z,121.53
2022-12-27T08:22:12.227Z,131.80
2022-12-27T08:25:01.526Z,73.43
2022-12-27T08:27:50.780Z,80.25
2022-12-27T08:30:41.527Z,64.88
2022-12-27T08:33:31.546Z,81.53
2022-12-27T08:39:31.371Z,177.05
2022-12-27T08:42:20.773Z,110.63
2022-12-27T08:45:11.550Z,114.03
2022-12-27T08:48:03.087Z,74.85
2022-12-27T08:50:52.433Z,64.18
2022-12-27T08:53:41.729Z,114.78
2022-12-27T08:56:32.473Z,219.10
2022-12-27T08:59:21.747Z,99.55
2022-12-27T09:02:12.182Z,174.82
2022-12-27T09:05:01.622Z,106.45
2022-12-27T09:07:51.155Z,141.27
2022-12-27T09:10:40.874Z,288.58
2022-12-27T09:13:31.532Z,111.95
2022-12-27T09:16:23.339Z,124.28
2022-12-27T09:19:13.506Z,166.82
2022-12-27T09:22:02.808Z,174.13
2022-12-27T09:24:52.121Z,175.93
2022-12-27T09:27:41.420Z,151.45
2022-12-27T09:30:32.108Z,152.98
2022-12-27T09:33:21.391Z,321.13
2022-12-27T09:36:13.014Z,243.18
2022-12-27T09:39:02.242Z,173.05
2022-12-27T09:45:18.861Z,297.58
2022-12-27T09:48:15.887Z,98.47
2022-12-27T09:51:14.663Z,179.75
2022-12-27T09:54:13.093Z,152.23
2022-12-27T09:57:19.918Z,196.23
2022-12-27T10:00:19.584Z,230.98
2022-12-27T10:03:28.824Z,183.75
2022-12-27T10:06:56.623Z,157.30
2022-12-27T10:10:00.203Z,179.27
2022-12-27T10:13:12.236Z,210.70
2022-12-27T10:16:16.492Z,219.00
2022-12-27T10:19:25.238Z,148.45
2022-12-27T10:22:24.692Z,173.40
2022-12-27T10:25:17.113Z,209.13
2022-12-27T10:28:17.346Z,347.38
2022-12-27T10:31:08.348Z,191.88
2022-12-27T10:33:58.278Z,371.02
2022-12-27T10:36:49.029Z,228.48
2022-12-27T10:39:39.279Z,135.23
2022-12-27T10:42:38.827Z,112.93
2022-12-27T10:45:33.523Z,274.63
2022-12-27T10:48:28.837Z,55.67
2022-12-27T10:51:23.525Z,135.13
2022-12-27T10:54:17.510Z,38.42
2022-12-27T10:57:25.555Z,194.52
2022-12-27T11:00:20.630Z,86.75
2022-12-27T11:03:20.840Z,35.63
2022-12-27T11:06:24.371Z,47.35
2022-12-27T11:09:28.735Z,123.22
2022-12-27T11:12:21.884Z,81.88
2022-12-27T11:18:17.297Z,99.38
2022-12-27T11:21:08.333Z,255.20
2022-12-27T11:24:03.461Z,58.00
2022-12-27T11:26:59.379Z,72.72
2022-12-27T11:29:49.158Z,96.20
2022-12-27T11:32:38.503Z,100.60
2022-12-27T11:35:27.851Z,60.80
2022-12-27T11:38:26.332Z,39.28
2022-12-27T11:41:27.754Z,52.10
2022-12-27T11:44:28.125Z,53.75
2022-12-27T11:47:37.067Z,119.22
2022-12-27T11:51:14.591Z,53.30
2022-12-27T11:54:21.811Z,96.93
2022-12-27T11:57:26.367Z,176.07
2022-12-27T12:00:21.893Z,214.57
2022-12-27T12:03:54.017Z,69.03
2022-12-27T12:06:56.748Z,99.28
2022-12-27T12:10:11.618Z,90.80
2022-12-27T12:13:30.817Z,115.38
2022-12-27T12:16:53.594Z,128.30
2022-12-27T12:20:04.542Z,104.28
2022-12-27T12:23:12.135Z,138.10
2022-12-27T12:26:19.219Z,46.90
2022-12-27T12:29:30.056Z,42.80
2022-12-27T12:32:39.699Z,148.48
2022-12-27T12:36:08.278Z,46.00
2022-12-27T12:39:10.702Z,44.63
2022-12-27T12:42:18.679Z,55.30
2022-12-27T12:45:36.628Z,41.67
2022-12-27T12:48:49.417Z,76.30
2022-12-27T12:52:10.717Z,113.90
2022-12-27T12:55:51.711Z,91.00
2022-12-27T12:58:54.904Z,145.82
2022-12-27T13:02:02.752Z,58.00
2022-12-27T13:05:14.807Z,64.93
2022-12-27T13:08:13.754Z,147.63
2022-12-27T13:11:34.425Z,74.70
2022-12-27T13:14:56.136Z,52.08
2022-12-27T13:18:00.449Z,96.85
2022-12-27T13:21:18.248Z,53.45
2022-12-27T13:24:20.479Z,40.30
2022-12-27T13:27:22.979Z,42.22
2022-12-27T13:30:23.500Z,65.05
2022-12-27T13:33:27.743Z,55.33
2022-12-27T13:36:26.905Z,75.90
2022-12-27T13:39:37.087Z,54.30
2022-12-27T13:43:07.485Z,60.88
2022-12-27T13:46:18.879Z,51.70
2022-12-27T13:49:31.560Z,54.42
2022-12-27T13:52:45.903Z,53.15
2022-12-27T13:55:56.953Z,47.70
2022-12-27T13:59:14.853Z,99.78
2022-12-27T14:02:35.912Z,55.10
2022-12-27T14:06:17.989Z,49.55
2022-12-27T14:09:49.077Z,44.03
2022-12-27T14:13:02.927Z,168.40
2022-12-27T14:16:24.422Z,60.13
2022-12-27T14:19:39.761Z,42.00
2022-12-27T14:23:00.818Z,162.00
2022-12-27T14:26:42.970Z,75.88
2022-12-27T14:30:24.306Z,79.00
2022-12-27T14:34:10.817Z,118.93
2022-12-27T14:37:39.652Z,217.40
2022-12-27T14:41:13.339Z,33.28
2022-12-27T14:44:44.734Z,44.22
2022-12-27T14:48:05.984Z,44.17
2022-12-27T14:55:37.417Z,52.67
2022-12-27T14:58:54.884Z,82.35
2022-12-27T15:02:07.646Z,47.10
2022-12-27T15:05:32.457Z,42.08
2022-12-27T15:08:43.408Z,103.78
2022-12-27T15:12:01.402Z,69.95
2022-12-27T15:15:18.429Z,64.18
2022-12-27T15:18:36.169Z,77.05
2022-12-27T15:21:53.730Z,40.53
2022-12-27T15:24:57.164Z,39.00
2022-12-27T15:27:56.069Z,49.70
2022-12-27T15:30:56.467Z,46.10
2022-12-27T15:34:00.372Z,336.23
2022-12-27T15:36:52.095Z,82.88
2022-12-27T15:39:52.025Z,56.63
2022-12-27T15:42:51.736Z,86.43
2022-12-27T15:45:55.626Z,54.30
2022-12-27T15:49:18.876Z,55.92
2022-12-27T15:52:19.166Z,49.70
2022-12-27T15:55:35.594Z,50.00
2022-12-27T15:58:26.222Z,53.45
2022-12-27T16:01:30.228Z,71.10
2022-12-27T16:04:52.299Z,46.35
2022-12-27T16:07:48.165Z,67.07
2022-12-27T16:10:51.972Z,96.20
2022-12-27T16:13:45.874Z,55.42
2022-12-27T16:16:59.342Z,43.78
2022-12-27T16:20:12.467Z,85.10
2022-12-27T16:23:04.644Z,43.70
2022-12-27T16:26:04.244Z,70.20
2022-12-27T16:28:59.264Z,57.10
2022-12-27T16:31:53.626Z,61.95
2022-12-27T16:34:44.504Z,117.30
2022-12-27T16:37:45.219Z,69.85
2022-12-27T16:40:49.658Z,52.20
2022-12-27T16:43:56.093Z,119.40
2022-12-27T16:47:03.494Z,83.57
2022-12-27T16:50:06.672Z,50.70
2022-12-27T16:53:13.765Z,53.35
2022-12-27T16:56:22.863Z,73.90
2022-12-27T16:59:58.171Z,40.08
2022-12-27T17:02:49.257Z,35.78
2022-12-27T17:05:44.835Z,38.13
2022-12-27T17:08:44.301Z,55.05
2022-12-27T17:11:35.749Z,40.20
2022-12-27T17:14:30.230Z,47.83
2022-12-27T17:17:24.480Z,42.13
2022-12-27T17:20:19.124Z,42.50
2022-12-27T17:23:09.528Z,34.70
2022-12-27T17:26:30.385Z,69.50
2022-12-27T17:30:04.404Z,33.30
2022-12-27T17:33:40.056Z,76.32
2022-12-27T17:36:50.479Z,42.42
2022-12-27T17:40:17.407Z,32.58
2022-12-27T17:43:42.032Z,53.47
2022-12-27T17:46:41.011Z,45.65
2022-12-27T17:49:33.797Z,74.00
2022-12-27T17:52:44.978Z,74.57
2022-12-27T17:55:52.181Z,108.80
2022-12-27T17:58:43.991Z,62.30
2022-12-27T18:01:38.246Z,56.50
2022-12-27T18:04:32.244Z,50.80
2022-12-27T18:07:27.772Z,54.95
2022-12-27T18:10:24.225Z,42.28
2022-12-27T18:13:21.127Z,47.58
2022-12-27T18:16:20.498Z,45.15
2022-12-27T18:19:18.444Z,46.13
2022-12-27T18:22:20.356Z,49.60
2022-12-27T18:25:25.996Z,47.65
2022-12-27T18:28:20.398Z,65.03
2022-12-27T18:31:19.115Z,68.20
2022-12-27T18:34:18.095Z,70.47
2022-12-27T18:37:10.574Z,69.30
2022-12-27T18:40:04.805Z,43.80
2022-12-27T18:42:56.217Z,82.75
2022-12-27T18:45:48.530Z,65.32
2022-12-27T18:48:42.950Z,56.97
2022-12-27T18:51:38.773Z,106.68
2022-12-27T18:54:37.033Z,27.85
2022-12-27T18:57:38.275Z,45.88
2022-12-27T19:00:29.393Z,37.17
2022-12-27T19:03:21.280Z,33.20
2022-12-27T19:06:14.464Z,38.40
2022-12-27T19:09:03.729Z,84.20
2022-12-27T19:11:55.642Z,45.92
2022-12-27T19:14:47.532Z,237.55
2022-12-27T19:17:40.359Z,113.70
2022-12-27T19:20:32.875Z,28.83
2022-12-27T19:23:35.086Z,26.98
2022-12-27T19:26:31.354Z,118.78
2022-12-27T19:29:23.025Z,125.05
2022-12-27T19:32:12.371Z,55.72
2022-12-27T19:35:04.394Z,29.65
2022-12-27T19:37:53.765Z,63.90
2022-12-27T19:40:44.446Z,81.68
2022-12-27T19:43:39.630Z,76.35
2022-12-27T19:46:31.273Z,67.80
2022-12-27T19:49:42.280Z,138.27
2022-12-27T19:52:30.073Z,91.57
2022-12-27T19:55:26.026Z,44.72
2022-12-27T19:58:23.282Z,35.90
2022-12-27T20:01:12.598Z,30.27
2022-12-27T20:04:01.968Z,41.85
2022-12-27T20:06:51.357Z,45.95
2022-12-27T20:09:40.652Z,67.07
2022-12-27T20:12:29.959Z,24.88
2022-12-27T20:15:20.597Z,48.17
2022-12-27T20:18:11.448Z,38.55
2022-12-27T20:21:00.754Z,44.60
2022-12-27T20:23:51.676Z,53.65
2022-12-27T20:26:41.571Z,34.03
2022-12-27T20:29:31.282Z,204.27
2022-12-27T20:32:22.350Z,82.00
2022-12-27T20:35:11.909Z,25.67
2022-12-27T20:38:01.386Z,27.90
2022-12-27T20:40:50.648Z,28.60
2022-12-27T20:43:40.089Z,44.20
2022-12-27T20:46:29.806Z,27.17
2022-12-27T20:49:20.465Z,31.63
2022-12-27T20:52:09.787Z,60.10
2022-12-27T20:55:00.001Z,41.40
2022-12-27T20:57:49.246Z,41.58
2022-12-27T21:00:41.157Z,30.88
2022-12-27T21:03:30.470Z,45.53
2022-12-27T21:06:23.888Z,23.95
2022-12-27T21:09:13.127Z,23.80
2022-12-27T21:12:02.365Z,53.20
2022-12-27T21:14:52.360Z,37.38
2022-12-27T21:17:41.565Z,35.60
2022-12-27T21:20:30.712Z,54.60
2022-12-27T21:23:21.441Z,56.13
2022-12-27T21:26:13.189Z,44.80
2022-12-27T21:29:04.317Z,59.50
2022-12-27T21:31:53.701Z,46.53
2022-12-27T21:34:43.043Z,50.95
2022-12-27T21:37:32.445Z,53.75
2022-12-27T21:40:23.466Z,23.17
2022-12-27T21:43:12.766Z,25.88
2022-12-27T21:46:07.730Z,27.83
2022-12-27T21:48:59.888Z,42.60
2022-12-27T21:51:49.856Z,53.63
2022-12-27T21:54:39.118Z,23.67
2022-12-27T21:57:29.803Z,25.10
2022-12-27T22:00:19.307Z,24.33
2022-12-27T22:03:08.917Z,39.70
2022-12-27T22:05:58.213Z,68.45
2022-12-27T22:08:49.878Z,74.88
2022-12-27T22:11:40.052Z,47.90
2022-12-27T22:14:36.639Z,77.90
2022-12-27T22:17:26.384Z,66.07
2022-12-27T22:20:15.618Z,35.80
2022-12-27T22:23:04.962Z,25.10
2022-12-27T22:25:54.330Z,53.00
2022-12-27T22:28:43.860Z,30.45
2022-12-27T22:31:37.960Z,97.70
2022-12-27T22:34:27.561Z,42.72
2022-12-27T22:37:16.859Z,21.55
2022-12-27T22:40:07.633Z,54.28
2022-12-27T22:43:16.919Z,66.82
2022-12-27T22:46:12.677Z,40.53
2022-12-27T22:49:04.659Z,39.78
2022-12-27T22:51:54.111Z,47.83
2022-12-27T22:55:05.280Z,35.88
2022-12-27T22:57:53.774Z,35.95
2022-12-27T23:00:43.456Z,26.35
2022-12-27T23:03:32.924Z,25.02
2022-12-27T23:06:24.611Z,30.05
2022-12-27T23:09:13.819Z,25.15
2022-12-27T23:12:03.155Z,14.77
2022-12-27T23:14:52.422Z,18.77
2022-12-27T23:17:41.840Z,16.30
2022-12-27T23:20:34.261Z,17.10
2022-12-27T23:23:26.082Z,14.55
2022-12-27T23:26:18.130Z,27.75
2022-12-27T23:29:08.522Z,13.77
2022-12-27T23:31:59.273Z,16.95
2022-12-27T23:34:48.631Z,14.80
2022-12-27T23:37:37.968Z,14.20
2022-12-27T23:40:28.947Z,15.32
2022-12-27T23:43:51.012Z,22.95
2022-12-27T23:46:30.678Z,19.77
2022-12-27T23:49:19.959Z,13.98
2022-12-27T23:52:09.159Z,36.15
2022-12-27T23:54:58.777Z,14.57
2022-12-27T23:57:49.386Z,15.35
